sensor_id;sensor_type;location;lat;lon;timestamp;temperature;humidity
76789;DHT22;65740;52.464;13.446;2023-06-19T00:01:19;24.90;42.40
76789;DHT22;65740;52.464;13.446;2023-06-19T00:03:44;24.90;42.20
76789;DHT22;65740;52.464;13.446;2023-06-19T00:06:10;24.90;42.40
76789;DHT22;65740;52.464;13.446;2023-06-19T00:08:38;24.80;42.20
76789;DHT22;65740;52.464;13.446;2023-06-19T00:11:06;24.80;42.00
76789;DHT22;65740;52.464;13.446;2023-06-19T00:13:32;24.80;42.10
76789;DHT22;65740;52.464;13.446;2023-06-19T00:15:59;24.80;42.10
76789;DHT22;65740;52.464;13.446;2023-06-19T00:18:26;24.80;42.00
76789;DHT22;65740;52.464;13.446;2023-06-19T00:20:52;24.70;41.80
76789;DHT22;65740;52.464;13.446;2023-06-19T00:23:19;24.70;41.70
76789;DHT22;65740;52.464;13.446;2023-06-19T00:25:45;24.80;42.00
76789;DHT22;65740;52.464;13.446;2023-06-19T00:28:11;24.70;41.80
76789;DHT22;65740;52.464;13.446;2023-06-19T00:30:39;24.70;41.70
76789;DHT22;65740;52.464;13.446;2023-06-19T00:33:05;24.70;41.70
76789;DHT22;65740;52.464;13.446;2023-06-19T00:35:31;24.70;41.70
76789;DHT22;65740;52.464;13.446;2023-06-19T00:37:56;24.70;41.70
76789;DHT22;65740;52.464;13.446;2023-06-19T00:40:31;24.70;41.70
76789;DHT22;65740;52.464;13.446;2023-06-19T00:42:57;24.60;41.60
76789;DHT22;65740;52.464;13.446;2023-06-19T00:45:23;24.70;41.70
76789;DHT22;65740;52.464;13.446;2023-06-19T00:47:55;24.70;41.70
76789;DHT22;65740;52.464;13.446;2023-06-19T00:50:22;24.60;41.60
76789;DHT22;65740;52.464;13.446;2023-06-19T00:52:48;24.60;41.60
76789;DHT22;65740;52.464;13.446;2023-06-19T00:55:15;24.60;41.60
76789;DHT22;65740;52.464;13.446;2023-06-19T00:57:41;24.60;41.60
76789;DHT22;65740;52.464;13.446;2023-06-19T01:00:08;24.60;41.60
76789;DHT22;65740;52.464;13.446;2023-06-19T01:02:35;24.60;41.60
76789;DHT22;65740;52.464;13.446;2023-06-19T01:05:00;24.60;41.60
76789;DHT22;65740;52.464;13.446;2023-06-19T01:10:07;24.50;41.50
76789;DHT22;65740;52.464;13.446;2023-06-19T01:12:37;24.50;41.50
76789;DHT22;65740;52.464;13.446;2023-06-19T01:15:05;24.50;41.50
76789;DHT22;65740;52.464;13.446;2023-06-19T01:17:32;24.50;41.50
76789;DHT22;65740;52.464;13.446;2023-06-19T01:19:59;24.50;41.50
76789;DHT22;65740;52.464;13.446;2023-06-19T01:22:31;24.40;41.40
76789;DHT22;65740;52.464;13.446;2023-06-19T01:24:57;24.40;41.40
76789;DHT22;65740;52.464;13.446;2023-06-19T01:27:23;24.50;41.50
76789;DHT22;65740;52.464;13.446;2023-06-19T01:29:51;24.40;42.10
76789;DHT22;65740;52.464;13.446;2023-06-19T01:32:23;24.40;41.40
76789;DHT22;65740;52.464;13.446;2023-06-19T01:34:52;24.40;41.40
76789;DHT22;65740;52.464;13.446;2023-06-19T01:37:19;24.30;41.30
76789;DHT22;65740;52.464;13.446;2023-06-19T01:39:46;24.40;41.40
76789;DHT22;65740;52.464;13.446;2023-06-19T01:42:13;24.30;41.30
76789;DHT22;65740;52.464;13.446;2023-06-19T01:44:40;24.30;41.30
76789;DHT22;65740;52.464;13.446;2023-06-19T01:47:12;24.30;41.30
76789;DHT22;65740;52.464;13.446;2023-06-19T01:49:39;24.30;41.30
76789;DHT22;65740;52.464;13.446;2023-06-19T01:52:05;24.30;41.30
76789;DHT22;65740;52.464;13.446;2023-06-19T01:54:30;24.30;41.30
76789;DHT22;65740;52.464;13.446;2023-06-19T01:56:57;24.30;41.30
76789;DHT22;65740;52.464;13.446;2023-06-19T01:59:23;24.20;41.20
76789;DHT22;65740;52.464;13.446;2023-06-19T02:01:48;24.30;41.30
76789;DHT22;65740;52.464;13.446;2023-06-19T02:04:14;24.20;41.20
76789;DHT22;65740;52.464;13.446;2023-06-19T02:06:39;24.20;41.20
76789;DHT22;65740;52.464;13.446;2023-06-19T02:09:05;24.20;41.20
76789;DHT22;65740;52.464;13.446;2023-06-19T02:11:31;24.20;41.20
76789;DHT22;65740;52.464;13.446;2023-06-19T02:13:57;24.20;41.20
76789;DHT22;65740;52.464;13.446;2023-06-19T02:16:22;24.20;41.20
76789;DHT22;65740;52.464;13.446;2023-06-19T02:18:48;24.10;41.10
76789;DHT22;65740;52.464;13.446;2023-06-19T02:21:13;24.10;41.10
76789;DHT22;65740;52.464;13.446;2023-06-19T02:23:39;24.10;41.00
76789;DHT22;65740;52.464;13.446;2023-06-19T02:26:04;24.10;41.00
76789;DHT22;65740;52.464;13.446;2023-06-19T02:28:30;24.10;40.80
76789;DHT22;65740;52.464;13.446;2023-06-19T02:30:55;24.10;40.90
76789;DHT22;65740;52.464;13.446;2023-06-19T02:33:21;24.10;40.90
76789;DHT22;65740;52.464;13.446;2023-06-19T02:35:47;24.10;40.70
76789;DHT22;65740;52.464;13.446;2023-06-19T02:38:12;24.10;40.70
76789;DHT22;65740;52.464;13.446;2023-06-19T02:40:39;24.10;40.70
76789;DHT22;65740;52.464;13.446;2023-06-19T02:43:04;24.10;41.40
76789;DHT22;65740;52.464;13.446;2023-06-19T02:45:30;24.10;40.60
76789;DHT22;65740;52.464;13.446;2023-06-19T02:47:55;24.10;41.20
76789;DHT22;65740;52.464;13.446;2023-06-19T02:50:21;24.00;40.40
76789;DHT22;65740;52.464;13.446;2023-06-19T02:52:47;24.10;40.50
76789;DHT22;65740;52.464;13.446;2023-06-19T02:55:13;24.00;40.30
76789;DHT22;65740;52.464;13.446;2023-06-19T02:57:38;24.00;40.40
76789;DHT22;65740;52.464;13.446;2023-06-19T03:00:04;24.00;40.40
76789;DHT22;65740;52.464;13.446;2023-06-19T03:02:34;24.00;40.30
76789;DHT22;65740;52.464;13.446;2023-06-19T03:05:01;24.00;40.30
76789;DHT22;65740;52.464;13.446;2023-06-19T03:07:26;24.00;40.20
76789;DHT22;65740;52.464;13.446;2023-06-19T03:09:54;24.00;40.30
76789;DHT22;65740;52.464;13.446;2023-06-19T03:12:20;24.00;40.20
76789;DHT22;65740;52.464;13.446;2023-06-19T03:14:45;23.90;40.00
76789;DHT22;65740;52.464;13.446;2023-06-19T03:17:12;23.90;40.00
76789;DHT22;65740;52.464;13.446;2023-06-19T03:19:37;23.90;40.00
76789;DHT22;65740;52.464;13.446;2023-06-19T03:22:03;23.90;40.00
76789;DHT22;65740;52.464;13.446;2023-06-19T03:24:29;23.90;40.00
76789;DHT22;65740;52.464;13.446;2023-06-19T03:26:54;23.90;40.00
76789;DHT22;65740;52.464;13.446;2023-06-19T03:29:20;23.90;40.00
76789;DHT22;65740;52.464;13.446;2023-06-19T03:31:45;23.90;40.00
76789;DHT22;65740;52.464;13.446;2023-06-19T03:34:11;23.90;40.00
76789;DHT22;65740;52.464;13.446;2023-06-19T03:36:37;23.90;39.90
76789;DHT22;65740;52.464;13.446;2023-06-19T03:39:04;23.90;39.90
76789;DHT22;65740;52.464;13.446;2023-06-19T03:41:29;23.90;40.60
76789;DHT22;65740;52.464;13.446;2023-06-19T03:43:55;23.80;39.80
76789;DHT22;65740;52.464;13.446;2023-06-19T03:46:21;23.80;39.80
76789;DHT22;65740;52.464;13.446;2023-06-19T03:48:46;23.80;39.80
76789;DHT22;65740;52.464;13.446;2023-06-19T03:51:12;23.80;39.80
76789;DHT22;65740;52.464;13.446;2023-06-19T03:53:38;23.80;39.70
76789;DHT22;65740;52.464;13.446;2023-06-19T03:56:03;23.80;39.80
76789;DHT22;65740;52.464;13.446;2023-06-19T03:58:29;23.80;39.70
76789;DHT22;65740;52.464;13.446;2023-06-19T04:00:54;23.80;39.70
76789;DHT22;65740;52.464;13.446;2023-06-19T04:03:20;23.80;39.70
76789;DHT22;65740;52.464;13.446;2023-06-19T04:05:46;23.80;39.70
76789;DHT22;65740;52.464;13.446;2023-06-19T04:08:11;23.70;39.60
76789;DHT22;65740;52.464;13.446;2023-06-19T04:10:37;23.80;39.70
76789;DHT22;65740;52.464;13.446;2023-06-19T04:13:03;23.80;39.70
76789;DHT22;65740;52.464;13.446;2023-06-19T04:15:29;23.70;39.50
76789;DHT22;65740;52.464;13.446;2023-06-19T04:17:57;23.70;39.60
76789;DHT22;65740;52.464;13.446;2023-06-19T04:20:23;23.70;39.50
76789;DHT22;65740;52.464;13.446;2023-06-19T04:22:48;23.70;39.50
76789;DHT22;65740;52.464;13.446;2023-06-19T04:25:14;23.70;39.50
76789;DHT22;65740;52.464;13.446;2023-06-19T04:27:40;23.70;39.50
76789;DHT22;65740;52.464;13.446;2023-06-19T04:30:06;23.70;39.50
76789;DHT22;65740;52.464;13.446;2023-06-19T04:32:32;23.70;39.40
76789;DHT22;65740;52.464;13.446;2023-06-19T04:34:58;23.70;39.40
76789;DHT22;65740;52.464;13.446;2023-06-19T04:37:24;23.60;39.30
76789;DHT22;65740;52.464;13.446;2023-06-19T04:39:49;23.60;39.30
76789;DHT22;65740;52.464;13.446;2023-06-19T04:42:17;23.60;39.30
76789;DHT22;65740;52.464;13.446;2023-06-19T04:44:49;23.60;39.30
76789;DHT22;65740;52.464;13.446;2023-06-19T04:47:17;23.60;39.30
76789;DHT22;65740;52.464;13.446;2023-06-19T04:49:43;23.60;39.30
76789;DHT22;65740;52.464;13.446;2023-06-19T04:52:09;23.60;39.30
76789;DHT22;65740;52.464;13.446;2023-06-19T04:54:34;23.60;39.30
76789;DHT22;65740;52.464;13.446;2023-06-19T04:57:00;23.60;39.40
76789;DHT22;65740;52.464;13.446;2023-06-19T04:59:27;23.60;39.30
76789;DHT22;65740;52.464;13.446;2023-06-19T05:01:52;23.60;39.30
76789;DHT22;65740;52.464;13.446;2023-06-19T05:04:21;23.60;39.40
76789;DHT22;65740;52.464;13.446;2023-06-19T05:06:51;23.60;39.40
76789;DHT22;65740;52.464;13.446;2023-06-19T05:09:16;23.60;39.40
76789;DHT22;65740;52.464;13.446;2023-06-19T05:11:42;23.60;39.40
76789;DHT22;65740;52.464;13.446;2023-06-19T05:14:08;23.60;39.40
76789;DHT22;65740;52.464;13.446;2023-06-19T05:16:34;23.60;39.40
76789;DHT22;65740;52.464;13.446;2023-06-19T05:19:00;23.60;39.40
76789;DHT22;65740;52.464;13.446;2023-06-19T05:21:25;23.50;40.00
76789;DHT22;65740;52.464;13.446;2023-06-19T05:23:51;23.50;39.30
76789;DHT22;65740;52.464;13.446;2023-06-19T05:26:19;23.50;39.30
76789;DHT22;65740;52.464;13.446;2023-06-19T05:28:44;23.50;40.00
76789;DHT22;65740;52.464;13.446;2023-06-19T05:31:10;23.50;39.30
76789;DHT22;65740;52.464;13.446;2023-06-19T05:33:36;23.50;39.30
76789;DHT22;65740;52.464;13.446;2023-06-19T05:36:01;23.50;39.30
76789;DHT22;65740;52.464;13.446;2023-06-19T05:38:27;23.50;39.30
76789;DHT22;65740;52.464;13.446;2023-06-19T05:40:56;23.50;39.30
76789;DHT22;65740;52.464;13.446;2023-06-19T05:43:21;23.50;39.30
76789;DHT22;65740;52.464;13.446;2023-06-19T05:45:48;23.50;39.30
76789;DHT22;65740;52.464;13.446;2023-06-19T05:48:13;23.50;39.30
76789;DHT22;65740;52.464;13.446;2023-06-19T05:50:39;23.50;39.20
76789;DHT22;65740;52.464;13.446;2023-06-19T05:53:05;23.50;39.20
76789;DHT22;65740;52.464;13.446;2023-06-19T05:55:30;23.50;39.20
76789;DHT22;65740;52.464;13.446;2023-06-19T05:57:56;23.50;39.20
76789;DHT22;65740;52.464;13.446;2023-06-19T06:00:22;23.50;39.10
76789;DHT22;65740;52.464;13.446;2023-06-19T06:02:48;23.50;39.20
76789;DHT22;65740;52.464;13.446;2023-06-19T06:05:14;23.50;39.20
76789;DHT22;65740;52.464;13.446;2023-06-19T06:07:39;23.50;39.20
76789;DHT22;65740;52.464;13.446;2023-06-19T06:10:05;23.50;39.20
76789;DHT22;65740;52.464;13.446;2023-06-19T06:12:34;23.50;39.20
76789;DHT22;65740;52.464;13.446;2023-06-19T06:15:01;23.50;39.20
76789;DHT22;65740;52.464;13.446;2023-06-19T06:17:27;23.40;39.10
76789;DHT22;65740;52.464;13.446;2023-06-19T06:19:53;23.40;39.10
76789;DHT22;65740;52.464;13.446;2023-06-19T06:22:18;23.40;39.20
76789;DHT22;65740;52.464;13.446;2023-06-19T06:24:44;23.50;39.30
76789;DHT22;65740;52.464;13.446;2023-06-19T06:27:12;23.40;39.10
76789;DHT22;65740;52.464;13.446;2023-06-19T06:29:37;23.40;39.20
76789;DHT22;65740;52.464;13.446;2023-06-19T06:32:07;23.40;39.30
76789;DHT22;65740;52.464;13.446;2023-06-19T06:34:35;23.40;39.20
76789;DHT22;65740;52.464;13.446;2023-06-19T06:37:01;23.40;39.20
76789;DHT22;65740;52.464;13.446;2023-06-19T06:39:27;23.50;40.60
76789;DHT22;65740;52.464;13.446;2023-06-19T06:41:53;23.40;40.10
76789;DHT22;65740;52.464;13.446;2023-06-19T06:44:19;23.40;40.50
76789;DHT22;65740;52.464;13.446;2023-06-19T06:46:44;23.40;41.40
76789;DHT22;65740;52.464;13.446;2023-06-19T06:49:11;23.40;41.80
76789;DHT22;65740;52.464;13.446;2023-06-19T06:51:37;23.40;42.50
76789;DHT22;65740;52.464;13.446;2023-06-19T06:54:02;23.40;42.80
76789;DHT22;65740;52.464;13.446;2023-06-19T06:56:28;23.40;42.60
76789;DHT22;65740;52.464;13.446;2023-06-19T06:58:54;23.40;42.60
76789;DHT22;65740;52.464;13.446;2023-06-19T07:01:20;23.40;42.90
76789;DHT22;65740;52.464;13.446;2023-06-19T07:03:45;23.40;43.40
76789;DHT22;65740;52.464;13.446;2023-06-19T07:06:11;23.40;43.80
76789;DHT22;65740;52.464;13.446;2023-06-19T07:08:36;23.40;43.80
76789;DHT22;65740;52.464;13.446;2023-06-19T07:11:02;23.40;44.20
76789;DHT22;65740;52.464;13.446;2023-06-19T07:13:28;23.40;44.10
76789;DHT22;65740;52.464;13.446;2023-06-19T07:15:54;23.40;44.10
76789;DHT22;65740;52.464;13.446;2023-06-19T07:18:19;23.40;44.40
76789;DHT22;65740;52.464;13.446;2023-06-19T07:20:45;23.40;44.30
76789;DHT22;65740;52.464;13.446;2023-06-19T07:23:11;23.40;44.70
76789;DHT22;65740;52.464;13.446;2023-06-19T07:25:36;23.40;45.00
76789;DHT22;65740;52.464;13.446;2023-06-19T07:28:02;23.40;44.80
76789;DHT22;65740;52.464;13.446;2023-06-19T07:30:30;23.50;45.40
76789;DHT22;65740;52.464;13.446;2023-06-19T07:32:56;23.50;45.80
76789;DHT22;65740;52.464;13.446;2023-06-19T07:35:22;23.50;45.80
76789;DHT22;65740;52.464;13.446;2023-06-19T07:37:47;23.50;45.30
76789;DHT22;65740;52.464;13.446;2023-06-19T07:40:13;23.60;45.30
76789;DHT22;65740;52.464;13.446;2023-06-19T07:42:39;23.60;45.40
76789;DHT22;65740;52.464;13.446;2023-06-19T07:45:05;23.60;45.20
76789;DHT22;65740;52.464;13.446;2023-06-19T07:47:30;23.60;46.00
76789;DHT22;65740;52.464;13.446;2023-06-19T07:49:56;23.60;45.90
76789;DHT22;65740;52.464;13.446;2023-06-19T07:52:22;23.60;45.90
76789;DHT22;65740;52.464;13.446;2023-06-19T07:54:53;23.60;45.70
76789;DHT22;65740;52.464;13.446;2023-06-19T07:57:19;23.70;45.60
76789;DHT22;65740;52.464;13.446;2023-06-19T07:59:45;23.70;45.50
76789;DHT22;65740;52.464;13.446;2023-06-19T08:02:11;23.70;45.80
76789;DHT22;65740;52.464;13.446;2023-06-19T08:04:36;23.70;46.40
76789;DHT22;65740;52.464;13.446;2023-06-19T08:07:02;23.70;46.40
76789;DHT22;65740;52.464;13.446;2023-06-19T08:09:28;23.70;45.90
76789;DHT22;65740;52.464;13.446;2023-06-19T08:11:53;23.80;46.20
76789;DHT22;65740;52.464;13.446;2023-06-19T08:14:19;23.70;46.10
76789;DHT22;65740;52.464;13.446;2023-06-19T08:16:45;23.80;46.30
76789;DHT22;65740;52.464;13.446;2023-06-19T08:19:11;23.80;46.30
76789;DHT22;65740;52.464;13.446;2023-06-19T08:21:36;23.80;46.30
76789;DHT22;65740;52.464;13.446;2023-06-19T08:24:02;23.80;46.30
76789;DHT22;65740;52.464;13.446;2023-06-19T08:26:28;23.90;46.80
76789;DHT22;65740;52.464;13.446;2023-06-19T08:28:54;23.90;46.80
76789;DHT22;65740;52.464;13.446;2023-06-19T08:31:20;23.90;46.90
76789;DHT22;65740;52.464;13.446;2023-06-19T08:33:47;23.90;46.80
76789;DHT22;65740;52.464;13.446;2023-06-19T08:36:15;23.90;46.60
76789;DHT22;65740;52.464;13.446;2023-06-19T08:38:41;23.90;46.60
76789;DHT22;65740;52.464;13.446;2023-06-19T08:41:07;24.00;46.70
76789;DHT22;65740;52.464;13.446;2023-06-19T08:43:32;24.00;46.80
76789;DHT22;65740;52.464;13.446;2023-06-19T08:46:15;24.00;46.80
76789;DHT22;65740;52.464;13.446;2023-06-19T08:48:41;24.00;47.00
76789;DHT22;65740;52.464;13.446;2023-06-19T08:51:07;24.00;47.80
76789;DHT22;65740;52.464;13.446;2023-06-19T08:53:35;24.00;46.90
76789;DHT22;65740;52.464;13.446;2023-06-19T08:56:04;24.00;46.90
76789;DHT22;65740;52.464;13.446;2023-06-19T08:58:30;24.00;46.60
76789;DHT22;65740;52.464;13.446;2023-06-19T09:00:58;24.10;47.00
76789;DHT22;65740;52.464;13.446;2023-06-19T09:03:24;24.10;46.80
76789;DHT22;65740;52.464;13.446;2023-06-19T09:05:50;24.10;47.10
76789;DHT22;65740;52.464;13.446;2023-06-19T09:08:17;24.10;47.00
76789;DHT22;65740;52.464;13.446;2023-06-19T09:10:43;24.10;46.90
76789;DHT22;65740;52.464;13.446;2023-06-19T09:13:08;24.10;46.80
76789;DHT22;65740;52.464;13.446;2023-06-19T09:15:36;24.10;46.80
76789;DHT22;65740;52.464;13.446;2023-06-19T09:18:07;24.10;47.00
76789;DHT22;65740;52.464;13.446;2023-06-19T09:20:37;24.10;46.90
76789;DHT22;65740;52.464;13.446;2023-06-19T09:23:04;24.20;47.00
76789;DHT22;65740;52.464;13.446;2023-06-19T09:25:30;24.20;47.10
76789;DHT22;65740;52.464;13.446;2023-06-19T09:27:57;24.20;47.10
76789;DHT22;65740;52.464;13.446;2023-06-19T09:30:23;24.20;47.40
76789;DHT22;65740;52.464;13.446;2023-06-19T09:32:48;24.20;47.50
76789;DHT22;65740;52.464;13.446;2023-06-19T09:35:14;24.30;47.60
76789;DHT22;65740;52.464;13.446;2023-06-19T09:37:41;24.30;47.50
76789;DHT22;65740;52.464;13.446;2023-06-19T09:40:07;24.30;47.50
76789;DHT22;65740;52.464;13.446;2023-06-19T09:42:39;24.30;47.60
76789;DHT22;65740;52.464;13.446;2023-06-19T09:45:10;24.30;47.80
76789;DHT22;65740;52.464;13.446;2023-06-19T09:47:37;24.30;47.60
76789;DHT22;65740;52.464;13.446;2023-06-19T09:50:05;24.30;47.80
76789;DHT22;65740;52.464;13.446;2023-06-19T09:52:32;24.30;47.90
76789;DHT22;65740;52.464;13.446;2023-06-19T09:54:57;24.30;47.90
76789;DHT22;65740;52.464;13.446;2023-06-19T09:57:25;24.30;48.00
76789;DHT22;65740;52.464;13.446;2023-06-19T09:59:56;24.40;47.90
76789;DHT22;65740;52.464;13.446;2023-06-19T10:02:24;24.30;47.90
76789;DHT22;65740;52.464;13.446;2023-06-19T10:04:55;24.40;48.10
76789;DHT22;65740;52.464;13.446;2023-06-19T10:07:23;24.40;48.10
76789;DHT22;65740;52.464;13.446;2023-06-19T10:12:22;24.50;48.20
76789;DHT22;65740;52.464;13.446;2023-06-19T10:17:37;24.50;47.90
76789;DHT22;65740;52.464;13.446;2023-06-19T10:20:03;24.60;48.00
76789;DHT22;65740;52.464;13.446;2023-06-19T10:22:32;24.50;48.10
76789;DHT22;65740;52.464;13.446;2023-06-19T10:24:58;24.50;48.20
76789;DHT22;65740;52.464;13.446;2023-06-19T10:27:25;24.50;48.10
76789;DHT22;65740;52.464;13.446;2023-06-19T10:29:54;24.60;48.10
76789;DHT22;65740;52.464;13.446;2023-06-19T10:32:20;24.60;48.10
76789;DHT22;65740;52.464;13.446;2023-06-19T10:34:47;24.60;48.20
76789;DHT22;65740;52.464;13.446;2023-06-19T10:37:15;24.60;48.20
76789;DHT22;65740;52.464;13.446;2023-06-19T10:39:40;24.60;48.10
76789;DHT22;65740;52.464;13.446;2023-06-19T10:42:07;24.70;48.10
76789;DHT22;65740;52.464;13.446;2023-06-19T10:44:33;24.70;48.20
76789;DHT22;65740;52.464;13.446;2023-06-19T10:47:00;24.70;48.20
76789;DHT22;65740;52.464;13.446;2023-06-19T10:49:27;24.70;48.30
76789;DHT22;65740;52.464;13.446;2023-06-19T10:51:52;24.70;48.30
76789;DHT22;65740;52.464;13.446;2023-06-19T10:54:24;24.70;48.60
76789;DHT22;65740;52.464;13.446;2023-06-19T10:56:50;24.70;48.50
76789;DHT22;65740;52.464;13.446;2023-06-19T10:59:16;24.80;48.60
76789;DHT22;65740;52.464;13.446;2023-06-19T11:01:47;24.80;48.60
76789;DHT22;65740;52.464;13.446;2023-06-19T11:04:15;24.80;48.30
76789;DHT22;65740;52.464;13.446;2023-06-19T11:06:42;24.80;48.40
76789;DHT22;65740;52.464;13.446;2023-06-19T11:09:10;24.80;48.70
76789;DHT22;65740;52.464;13.446;2023-06-19T11:11:44;24.80;48.70
76789;DHT22;65740;52.464;13.446;2023-06-19T11:14:11;24.80;48.60
76789;DHT22;65740;52.464;13.446;2023-06-19T11:16:41;24.90;48.60
76789;DHT22;65740;52.464;13.446;2023-06-19T11:19:08;24.90;48.60
76789;DHT22;65740;52.464;13.446;2023-06-19T11:21:36;24.90;48.50
76789;DHT22;65740;52.464;13.446;2023-06-19T11:24:12;24.90;48.40
76789;DHT22;65740;52.464;13.446;2023-06-19T11:26:45;25.00;48.30
76789;DHT22;65740;52.464;13.446;2023-06-19T11:29:30;25.10;48.40
76789;DHT22;65740;52.464;13.446;2023-06-19T11:32:08;25.10;48.80
76789;DHT22;65740;52.464;13.446;2023-06-19T11:34:35;25.10;49.00
76789;DHT22;65740;52.464;13.446;2023-06-19T11:37:20;25.10;49.20
76789;DHT22;65740;52.464;13.446;2023-06-19T11:39:47;25.10;49.10
76789;DHT22;65740;52.464;13.446;2023-06-19T11:42:14;25.10;49.10
76789;DHT22;65740;52.464;13.446;2023-06-19T11:44:56;25.20;49.30
76789;DHT22;65740;52.464;13.446;2023-06-19T11:47:23;25.20;49.20
76789;DHT22;65740;52.464;13.446;2023-06-19T11:49:49;25.20;49.10
76789;DHT22;65740;52.464;13.446;2023-06-19T11:52:16;25.20;49.00
76789;DHT22;65740;52.464;13.446;2023-06-19T11:54:41;25.20;49.30
76789;DHT22;65740;52.464;13.446;2023-06-19T11:57:09;25.20;48.90
76789;DHT22;65740;52.464;13.446;2023-06-19T11:59:40;25.20;49.00
76789;DHT22;65740;52.464;13.446;2023-06-19T12:02:07;25.30;49.00
76789;DHT22;65740;52.464;13.446;2023-06-19T12:04:33;25.30;49.30
76789;DHT22;65740;52.464;13.446;2023-06-19T12:06:59;25.30;49.30
76789;DHT22;65740;52.464;13.446;2023-06-19T12:09:25;25.30;49.00
76789;DHT22;65740;52.464;13.446;2023-06-19T12:11:51;25.40;48.90
76789;DHT22;65740;52.464;13.446;2023-06-19T12:14:24;25.40;48.70
76789;DHT22;65740;52.464;13.446;2023-06-19T12:16:50;25.40;48.50
76789;DHT22;65740;52.464;13.446;2023-06-19T12:19:16;25.40;48.70
76789;DHT22;65740;52.464;13.446;2023-06-19T12:21:42;25.40;49.20
76789;DHT22;65740;52.464;13.446;2023-06-19T12:24:07;25.50;48.30
76789;DHT22;65740;52.464;13.446;2023-06-19T12:26:36;25.50;47.80
76789;DHT22;65740;52.464;13.446;2023-06-19T12:29:03;25.50;47.40
76789;DHT22;65740;52.464;13.446;2023-06-19T12:31:31;25.50;47.50
76789;DHT22;65740;52.464;13.446;2023-06-19T12:33:56;25.60;47.60
76789;DHT22;65740;52.464;13.446;2023-06-19T12:36:22;25.70;47.50
76789;DHT22;65740;52.464;13.446;2023-06-19T12:38:48;25.70;47.50
76789;DHT22;65740;52.464;13.446;2023-06-19T12:41:14;25.70;47.10
76789;DHT22;65740;52.464;13.446;2023-06-19T12:43:40;25.80;47.10
76789;DHT22;65740;52.464;13.446;2023-06-19T12:46:06;25.80;47.30
76789;DHT22;65740;52.464;13.446;2023-06-19T12:48:32;25.80;47.20
76789;DHT22;65740;52.464;13.446;2023-06-19T12:50:58;25.80;47.10
76789;DHT22;65740;52.464;13.446;2023-06-19T12:53:24;25.80;46.50
76789;DHT22;65740;52.464;13.446;2023-06-19T12:55:55;25.90;46.70
76789;DHT22;65740;52.464;13.446;2023-06-19T12:58:20;25.90;46.70
76789;DHT22;65740;52.464;13.446;2023-06-19T13:00:46;25.90;46.70
76789;DHT22;65740;52.464;13.446;2023-06-19T13:03:12;26.00;46.40
76789;DHT22;65740;52.464;13.446;2023-06-19T13:05:37;26.00;46.50
76789;DHT22;65740;52.464;13.446;2023-06-19T13:08:03;26.00;46.10
76789;DHT22;65740;52.464;13.446;2023-06-19T13:10:28;26.00;46.80
76789;DHT22;65740;52.464;13.446;2023-06-19T13:12:54;26.00;46.30
76789;DHT22;65740;52.464;13.446;2023-06-19T13:15:20;26.00;45.90
76789;DHT22;65740;52.464;13.446;2023-06-19T13:17:45;26.10;46.00
76789;DHT22;65740;52.464;13.446;2023-06-19T13:20:11;26.10;46.80
76789;DHT22;65740;52.464;13.446;2023-06-19T13:22:37;26.10;46.10
76789;DHT22;65740;52.464;13.446;2023-06-19T13:25:03;26.20;46.10
76789;DHT22;65740;52.464;13.446;2023-06-19T13:27:29;26.20;46.20
76789;DHT22;65740;52.464;13.446;2023-06-19T13:29:55;26.30;46.00
76789;DHT22;65740;52.464;13.446;2023-06-19T13:32:20;26.30;46.30
76789;DHT22;65740;52.464;13.446;2023-06-19T13:34:46;26.30;46.20
76789;DHT22;65740;52.464;13.446;2023-06-19T13:37:12;26.30;46.10
76789;DHT22;65740;52.464;13.446;2023-06-19T13:39:37;26.30;46.00
76789;DHT22;65740;52.464;13.446;2023-06-19T13:42:05;26.30;46.00
76789;DHT22;65740;52.464;13.446;2023-06-19T13:44:31;26.30;46.00
76789;DHT22;65740;52.464;13.446;2023-06-19T13:46:56;26.30;46.20
76789;DHT22;65740;52.464;13.446;2023-06-19T13:49:22;26.30;46.20
76789;DHT22;65740;52.464;13.446;2023-06-19T13:51:48;26.30;46.20
76789;DHT22;65740;52.464;13.446;2023-06-19T13:54:13;26.30;46.30
76789;DHT22;65740;52.464;13.446;2023-06-19T13:56:39;26.40;46.40
76789;DHT22;65740;52.464;13.446;2023-06-19T13:59:05;26.40;46.10
76789;DHT22;65740;52.464;13.446;2023-06-19T14:01:32;26.40;46.20
76789;DHT22;65740;52.464;13.446;2023-06-19T14:03:58;26.40;46.30
76789;DHT22;65740;52.464;13.446;2023-06-19T14:06:26;26.40;46.10
76789;DHT22;65740;52.464;13.446;2023-06-19T14:08:52;26.40;46.30
76789;DHT22;65740;52.464;13.446;2023-06-19T14:11:18;26.40;46.40
76789;DHT22;65740;52.464;13.446;2023-06-19T14:13:44;26.50;46.50
76789;DHT22;65740;52.464;13.446;2023-06-19T14:16:10;26.50;46.20
76789;DHT22;65740;52.464;13.446;2023-06-19T14:18:36;26.60;46.20
76789;DHT22;65740;52.464;13.446;2023-06-19T14:21:04;26.60;46.20
76789;DHT22;65740;52.464;13.446;2023-06-19T14:23:31;26.70;46.20
76789;DHT22;65740;52.464;13.446;2023-06-19T14:25:57;26.60;46.60
76789;DHT22;65740;52.464;13.446;2023-06-19T14:28:23;26.70;45.70
76789;DHT22;65740;52.464;13.446;2023-06-19T14:30:48;26.70;46.30
76789;DHT22;65740;52.464;13.446;2023-06-19T14:33:14;26.70;46.10
76789;DHT22;65740;52.464;13.446;2023-06-19T14:35:43;26.80;45.90
76789;DHT22;65740;52.464;13.446;2023-06-19T14:38:12;26.80;45.40
76789;DHT22;65740;52.464;13.446;2023-06-19T14:40:39;26.80;46.00
76789;DHT22;65740;52.464;13.446;2023-06-19T14:43:04;26.80;46.40
76789;DHT22;65740;52.464;13.446;2023-06-19T14:45:30;26.80;46.20
76789;DHT22;65740;52.464;13.446;2023-06-19T14:47:56;26.80;46.10
76789;DHT22;65740;52.464;13.446;2023-06-19T14:50:21;26.90;46.40
76789;DHT22;65740;52.464;13.446;2023-06-19T14:52:47;26.90;46.40
76789;DHT22;65740;52.464;13.446;2023-06-19T14:55:13;26.90;46.30
76789;DHT22;65740;52.464;13.446;2023-06-19T14:57:38;26.90;46.20
76789;DHT22;65740;52.464;13.446;2023-06-19T15:00:05;26.90;46.50
76789;DHT22;65740;52.464;13.446;2023-06-19T15:02:31;27.00;46.20
76789;DHT22;65740;52.464;13.446;2023-06-19T15:04:57;27.00;45.50
76789;DHT22;65740;52.464;13.446;2023-06-19T15:07:22;27.00;45.30
76789;DHT22;65740;52.464;13.446;2023-06-19T15:09:48;27.00;45.60
76789;DHT22;65740;52.464;13.446;2023-06-19T15:12:14;27.00;45.60
76789;DHT22;65740;52.464;13.446;2023-06-19T15:14:39;27.00;45.90
76789;DHT22;65740;52.464;13.446;2023-06-19T15:17:06;27.00;45.70
76789;DHT22;65740;52.464;13.446;2023-06-19T15:19:32;27.00;45.50